Hoskins, Nebraska
Current Conditions -  °F | °C
As of 11:56 AM on Thursday 29 Jan 2015 (Local Time) from KOFK Reporting Station
Overcast Overcast  
Wind Chill: 25°   Ceiling: 2600
Heat Index: 37°   Visibility: 10mi
Dew Point: 26°   Wind: 25mph
Humidity: 65%   Direction: 330°NNW
Pressure: 30.42"   Gusts: 32mph
Location:  42.11°N, 97.31°W
Report Text: KOFK 291756Z AUTO 33022G28KT 10SM OVC026 03/M03 A3042 RMK AO2 PK WND 32028/1755 SLP317 T00281033 10028 20017 51022
Loading
Personal Weather Stations






























Interactive Weather Map New forecast layout! Learn more

10-Day Weather Forecast

Advertisements
Track Severe Weather on mobile